Pagrindinis puslapis
METAR-TAF:

METAR-TAF

Oro uostai :

Bagdadas, Irakas

platuma: 33-15-45N, ilguma: 44-14-04E, Aukštis: 35 m

Dabartinis oras

Ataskaita buvo paskelbta 1 valandą ir 9 minutes, ne 05:00 UTC
Vėjas 9 kt iš Pietų/Pietvakarių
Temperatūra 11°C
Drėgmė 87%
Slėgis 1019 hPa
Matomumas: 6000 m

METAR: ORBI 230500Z 20009KT 6000 NSC 11/09 Q1019 NOSIG

Laikas: 09:09 (06:09 UTC)

Prognozė

Ataskaita buvo paskelbta 2 valandos ir 9 minutes, ne 04:00 UTC
Prognozė galioja nuo 23 metu 06 UTC su 24 metu 06 UTC
Vėjas 8 kt iš Pietų
Matomumas: 5000 m
rūkana
Tapsmas
nuo 23 metu 16 UTC su 23 metu 18 UTC
Vėjas 8 kt iš Vakarų/Šiaurės Vakarų
Matomumas: 8000 m

TAF: ORBI 230400Z 2306/2406 18008KT 5000 BR NSC BECMG 2316/2318 29008KT 8000

Orai ataskaitas ir orų prognozės (METAR, TAF).

turimą stotys yra geltonos ir raudonos taškus žemėlapyje.

Perkelti pele per norėdami pamatyti stoties vardą.

Tada spustelėkite, norėdami matyti oro stebėjimo ir prognozės.

Norėdami pakeisti žemėlapį: spustelėkite ant žalios mygtukų su juodo kryžiaus žemyn,; žalią mygtuką su brūkšneliu, jei norite nutolinti; arba žalių rodyklių gretimoms žemėlapius.


METAR-TAF: